createdAt,value
2023-09-17T00:01:39.275Z,17.30
2023-09-17T00:04:07.962Z,17.20
2023-09-17T00:06:34.926Z,17.20
2023-09-17T00:09:01.669Z,17.20
2023-09-17T00:11:28.414Z,17.10
2023-09-17T00:13:55.214Z,17.20
2023-09-17T00:16:22.117Z,17.20
2023-09-17T00:18:48.850Z,17.20
2023-09-17T00:21:16.059Z,17.20
2023-09-17T00:23:42.786Z,17.20
2023-09-17T00:26:09.457Z,17.20
2023-09-17T00:28:36.704Z,17.40
2023-09-17T00:31:03.502Z,17.30
2023-09-17T00:33:30.995Z,17.30
2023-09-17T00:36:01.150Z,17.30
2023-09-17T00:38:27.825Z,17.30
2023-09-17T00:40:54.743Z,17.20
2023-09-17T00:43:21.538Z,17.30
2023-09-17T00:45:48.475Z,17.30
2023-09-17T00:48:15.288Z,17.20
2023-09-17T00:50:41.987Z,17.40
2023-09-17T00:53:09.198Z,17.40
2023-09-17T00:55:36.926Z,17.30
2023-09-17T00:58:05.354Z,17.20
2023-09-17T01:00:34.609Z,17.30
2023-09-17T01:03:03.751Z,17.30
2023-09-17T01:05:37.863Z,17.40
2023-09-17T01:08:08.274Z,17.40
2023-09-17T01:10:36.624Z,17.20
2023-09-17T01:13:05.908Z,17.20
2023-09-17T01:15:35.326Z,17.30
2023-09-17T01:18:06.874Z,17.30
2023-09-17T01:20:40.944Z,17.40
2023-09-17T01:23:40.910Z,17.40
2023-09-17T01:26:18.008Z,17.40
2023-09-17T01:28:44.948Z,17.20
2023-09-17T01:31:11.686Z,17.10
2023-09-17T01:33:38.448Z,17.10
2023-09-17T01:36:17.167Z,17.20
2023-09-17T01:38:51.028Z,17.30
2023-09-17T01:41:19.664Z,17.20
2023-09-17T01:43:47.522Z,17.10
2023-09-17T01:46:16.536Z,17.00
2023-09-17T01:48:43.911Z,17.00
2023-09-17T01:51:12.435Z,17.00
2023-09-17T01:53:39.850Z,17.00
2023-09-17T01:56:06.533Z,17.00
2023-09-17T01:58:34.913Z,17.10
2023-09-17T02:01:01.736Z,17.10
2023-09-17T02:03:29.976Z,17.10
2023-09-17T02:05:57.018Z,17.10
2023-09-17T02:08:23.923Z,17.00
2023-09-17T02:10:50.608Z,17.00
2023-09-17T02:13:17.312Z,16.90
2023-09-17T02:15:46.046Z,17.10
2023-09-17T02:18:13.334Z,17.20
2023-09-17T02:20:40.847Z,17.20
2023-09-17T02:23:10.384Z,17.10
2023-09-17T02:25:37.338Z,17.10
2023-09-17T02:28:04.394Z,17.10
2023-09-17T02:30:31.864Z,17.20
2023-09-17T02:32:58.814Z,17.20
2023-09-17T02:35:25.632Z,17.10
2023-09-17T02:37:52.358Z,17.20
2023-09-17T02:40:19.089Z,17.20
2023-09-17T02:42:46.901Z,17.20
2023-09-17T02:45:13.575Z,17.30
2023-09-17T02:47:41.567Z,17.20
2023-09-17T02:50:10.764Z,17.20
2023-09-17T02:52:37.592Z,17.30
2023-09-17T02:55:05.882Z,17.30
2023-09-17T02:57:32.669Z,17.30
2023-09-17T03:00:00.518Z,17.30
2023-09-17T03:02:27.456Z,17.20
2023-09-17T03:04:57.531Z,17.10
2023-09-17T03:07:25.581Z,17.20
2023-09-17T03:09:52.617Z,17.20
2023-09-17T03:12:19.358Z,17.10
2023-09-17T03:14:46.893Z,17.00
2023-09-17T03:17:13.849Z,17.00
2023-09-17T03:19:40.748Z,17.10
2023-09-17T03:22:07.476Z,17.10
2023-09-17T03:24:35.811Z,17.10
2023-09-17T03:27:02.736Z,17.10
2023-09-17T03:29:29.997Z,17.10
2023-09-17T03:31:57.264Z,17.00
2023-09-17T03:34:24.138Z,16.90
2023-09-17T03:36:51.866Z,17.00
2023-09-17T03:39:18.850Z,16.90
2023-09-17T03:41:45.757Z,16.90
2023-09-17T03:44:12.489Z,16.80
2023-09-17T03:46:39.721Z,16.90
2023-09-17T03:49:07.652Z,16.70
2023-09-17T03:51:35.555Z,16.60
2023-09-17T03:54:02.912Z,16.60
2023-09-17T03:56:29.815Z,16.60
2023-09-17T03:58:57.076Z,16.70
2023-09-17T04:01:26.061Z,16.80
2023-09-17T04:03:53.193Z,16.80
2023-09-17T04:06:20.248Z,16.70
2023-09-17T04:08:46.955Z,16.80
2023-09-17T04:11:17.074Z,16.80
2023-09-17T04:13:45.178Z,16.90
2023-09-17T04:16:13.384Z,16.80
2023-09-17T04:18:40.232Z,16.80
2023-09-17T04:21:07.838Z,16.80
2023-09-17T04:23:34.832Z,16.90
2023-09-17T04:26:01.789Z,16.80
2023-09-17T04:28:28.603Z,16.80
2023-09-17T04:30:56.052Z,16.80
2023-09-17T04:33:23.807Z,16.80
2023-09-17T04:35:57.479Z,16.80
2023-09-17T04:38:24.812Z,16.80
2023-09-17T04:40:51.696Z,16.90
2023-09-17T04:43:20.509Z,16.90
2023-09-17T04:45:47.654Z,17.10
2023-09-17T04:48:23.833Z,17.10
2023-09-17T04:50:50.617Z,17.20
2023-09-17T04:53:17.725Z,17.30
2023-09-17T04:55:46.183Z,17.40
2023-09-17T04:58:15.371Z,17.40
2023-09-17T05:00:43.074Z,17.50
2023-09-17T05:03:10.071Z,17.50
2023-09-17T05:05:36.762Z,17.50
2023-09-17T05:08:04.349Z,17.60
2023-09-17T05:10:31.043Z,17.60
2023-09-17T05:12:58.221Z,17.70
2023-09-17T05:15:25.502Z,17.80
2023-09-17T05:17:55.119Z,18.00
2023-09-17T05:20:22.706Z,18.10
2023-09-17T05:22:49.622Z,18.20
2023-09-17T05:25:16.499Z,18.20
2023-09-17T05:27:43.548Z,18.30
2023-09-17T05:30:10.502Z,18.30
2023-09-17T05:32:38.350Z,18.30
2023-09-17T05:35:05.587Z,18.30
2023-09-17T05:37:32.634Z,18.30
2023-09-17T05:40:02.265Z,18.30
2023-09-17T05:42:30.407Z,18.30
2023-09-17T05:44:57.397Z,18.30
2023-09-17T05:47:25.009Z,18.40
2023-09-17T05:49:51.983Z,18.40
2023-09-17T05:52:19.287Z,18.40
2023-09-17T05:54:46.299Z,18.40
2023-09-17T05:57:13.031Z,18.50
2023-09-17T05:59:39.817Z,18.50
2023-09-17T06:02:09.016Z,18.60
2023-09-17T06:04:36.538Z,18.60
2023-09-17T06:07:03.304Z,18.70
2023-09-17T06:09:30.932Z,18.70
2023-09-17T06:11:58.376Z,18.60
2023-09-17T06:14:25.208Z,18.50
2023-09-17T06:16:57.601Z,18.40
2023-09-17T06:19:25.272Z,18.40
2023-09-17T06:21:54.880Z,18.40
2023-09-17T06:24:22.028Z,18.30
2023-09-17T06:26:48.846Z,18.30
2023-09-17T06:29:15.621Z,18.40
2023-09-17T06:31:42.745Z,18.50
2023-09-17T06:34:10.809Z,18.50
2023-09-17T06:36:38.013Z,18.60
2023-09-17T06:39:07.031Z,18.70
2023-09-17T06:41:37.455Z,18.70
2023-09-17T06:44:05.980Z,18.80
2023-09-17T06:46:33.458Z,18.80
2023-09-17T06:49:00.463Z,18.80
2023-09-17T06:51:27.326Z,18.80
2023-09-17T06:53:54.323Z,18.60
2023-09-17T06:56:24.687Z,18.70
2023-09-17T06:58:51.750Z,18.60
2023-09-17T07:01:19.393Z,18.70
2023-09-17T07:03:46.220Z,18.70
2023-09-17T07:06:12.924Z,18.70
2023-09-17T07:08:39.673Z,18.80
2023-09-17T07:11:06.618Z,18.80
2023-09-17T07:13:33.324Z,18.80
2023-09-17T07:16:00.206Z,18.90
2023-09-17T07:18:27.490Z,18.80
2023-09-17T07:20:54.228Z,18.80
2023-09-17T07:23:21.051Z,18.80
2023-09-17T07:25:47.931Z,18.80
2023-09-17T07:28:14.833Z,18.90
2023-09-17T07:30:41.612Z,18.90
2023-09-17T07:33:08.502Z,18.90
2023-09-17T07:35:36.421Z,18.90
2023-09-17T07:38:03.269Z,19.00
2023-09-17T07:40:30.118Z,19.00
2023-09-17T07:42:56.964Z,19.20
2023-09-17T07:45:23.780Z,19.10
2023-09-17T07:47:50.477Z,19.10
2023-09-17T07:50:17.290Z,19.10
2023-09-17T07:52:44.221Z,19.10
2023-09-17T07:55:11.132Z,19.20
2023-09-17T07:57:37.927Z,19.20
2023-09-17T08:00:07.035Z,19.20
2023-09-17T08:02:39.884Z,19.10
2023-09-17T08:05:08.362Z,19.00
2023-09-17T08:07:36.880Z,18.90
2023-09-17T08:10:07.789Z,18.80
2023-09-17T08:12:34.546Z,18.70
2023-09-17T08:15:01.947Z,18.70
2023-09-17T08:17:28.925Z,18.70
2023-09-17T08:19:57.927Z,18.80
2023-09-17T08:22:26.326Z,18.90
2023-09-17T08:24:53.051Z,19.10
2023-09-17T08:27:20.938Z,19.30
2023-09-17T08:29:47.922Z,19.40
2023-09-17T08:32:15.374Z,19.40
2023-09-17T08:34:42.208Z,19.40
2023-09-17T08:37:09.039Z,19.40
2023-09-17T08:39:35.738Z,19.40
2023-09-17T08:42:02.898Z,19.60
2023-09-17T08:44:31.990Z,19.80
2023-09-17T08:47:00.793Z,19.90
2023-09-17T08:49:27.774Z,19.90
2023-09-17T08:51:57.487Z,19.80
2023-09-17T08:54:34.501Z,19.80
2023-09-17T08:57:04.960Z,19.90
2023-09-17T08:59:39.207Z,19.90
2023-09-17T09:02:30.342Z,20.00
2023-09-17T09:04:58.624Z,20.00
2023-09-17T09:07:26.670Z,20.10
2023-09-17T09:09:53.727Z,20.30
2023-09-17T09:12:20.978Z,20.60
2023-09-17T09:14:48.833Z,20.90
2023-09-17T09:17:15.677Z,21.10
2023-09-17T09:19:42.659Z,21.10
2023-09-17T09:22:09.406Z,21.40
2023-09-17T09:24:48.943Z,21.60
2023-09-17T09:27:16.635Z,21.70
2023-09-17T09:29:44.579Z,21.50
2023-09-17T09:32:12.388Z,21.30
2023-09-17T09:34:43.225Z,21.40
2023-09-17T09:37:10.841Z,21.40
2023-09-17T09:39:38.393Z,21.40
2023-09-17T09:42:06.362Z,21.30
2023-09-17T09:44:34.018Z,21.30
2023-09-17T09:47:01.965Z,21.60
2023-09-17T09:49:29.742Z,21.70
2023-09-17T09:52:00.138Z,22.10
2023-09-17T09:54:26.785Z,22.40
2023-09-17T09:56:53.747Z,22.30
2023-09-17T09:59:33.580Z,22.40
2023-09-17T10:02:03.006Z,22.70
2023-09-17T10:04:30.491Z,23.20
2023-09-17T10:06:58.245Z,23.50
2023-09-17T10:09:26.432Z,23.50
2023-09-17T10:11:56.506Z,23.50
2023-09-17T10:14:25.347Z,23.30
2023-09-17T10:16:53.238Z,23.20
2023-09-17T10:19:22.351Z,23.40
2023-09-17T10:21:50.313Z,23.90
2023-09-17T10:24:20.280Z,24.20
2023-09-17T10:26:47.391Z,24.40
2023-09-17T10:29:15.207Z,24.20
2023-09-17T10:31:47.083Z,24.10
2023-09-17T10:34:15.082Z,23.90
2023-09-17T10:36:43.471Z,23.90
2023-09-17T10:39:11.817Z,24.00
2023-09-17T10:41:38.796Z,23.90
2023-09-17T10:44:07.801Z,23.80
2023-09-17T10:46:37.526Z,23.90
2023-09-17T10:49:07.002Z,24.20
2023-09-17T10:51:34.428Z,24.40
2023-09-17T10:54:01.113Z,24.40
2023-09-17T10:56:28.380Z,24.40
2023-09-17T10:58:55.664Z,24.50
2023-09-17T11:01:30.907Z,24.60
2023-09-17T11:04:03.743Z,24.70
2023-09-17T11:06:35.713Z,24.70
2023-09-17T11:09:03.052Z,24.80
2023-09-17T11:11:31.496Z,24.80
2023-09-17T11:13:58.365Z,25.10
2023-09-17T11:16:27.460Z,25.30
2023-09-17T11:19:18.026Z,25.40
2023-09-17T11:21:50.134Z,25.40
2023-09-17T11:24:20.358Z,25.70
2023-09-17T11:26:49.057Z,25.80
2023-09-17T11:29:16.038Z,25.60
2023-09-17T11:31:55.522Z,25.70
2023-09-17T11:34:22.753Z,25.90
2023-09-17T11:36:49.560Z,26.30
2023-09-17T11:39:17.451Z,26.40
2023-09-17T11:41:56.515Z,26.60
2023-09-17T11:44:27.192Z,26.80
2023-09-17T11:46:54.055Z,26.60
2023-09-17T11:49:23.415Z,26.40
2023-09-17T11:51:50.685Z,26.20
2023-09-17T11:54:20.074Z,26.10
2023-09-17T11:56:47.905Z,26.00
2023-09-17T11:59:17.261Z,26.20
2023-09-17T12:01:53.642Z,26.20
2023-09-17T12:04:24.124Z,26.30
2023-09-17T12:06:52.017Z,26.60
2023-09-17T12:10:01.636Z,26.70
2023-09-17T12:12:30.331Z,26.80
2023-09-17T12:14:57.781Z,26.90
2023-09-17T12:17:24.670Z,27.00
2023-09-17T12:20:00.758Z,26.90
2023-09-17T12:23:18.091Z,27.00
2023-09-17T12:25:50.483Z,27.00
2023-09-17T12:28:27.297Z,27.00
2023-09-17T12:30:55.139Z,26.90
2023-09-17T12:33:23.072Z,26.80
2023-09-17T12:35:49.919Z,26.80
2023-09-17T12:38:16.755Z,26.70
2023-09-17T12:40:43.564Z,26.60
2023-09-17T12:43:10.295Z,26.70
2023-09-17T12:45:38.645Z,26.60
2023-09-17T12:48:06.057Z,26.70
2023-09-17T12:50:33.697Z,26.90
2023-09-17T12:53:00.470Z,27.00
2023-09-17T12:55:27.963Z,27.00
2023-09-17T12:57:54.655Z,27.00
2023-09-17T13:00:23.270Z,27.00
2023-09-17T13:02:55.046Z,27.10
2023-09-17T13:05:22.829Z,27.20
2023-09-17T13:07:50.044Z,27.20
2023-09-17T13:10:21.150Z,27.30
2023-09-17T13:12:48.934Z,27.30
2023-09-17T13:15:15.997Z,27.20
2023-09-17T13:17:42.830Z,27.30
2023-09-17T13:20:09.910Z,27.40
2023-09-17T13:22:37.000Z,27.40
2023-09-17T13:25:04.114Z,27.40
2023-09-17T13:27:30.945Z,27.50
2023-09-17T13:29:58.003Z,27.50
2023-09-17T13:32:26.219Z,27.30
2023-09-17T13:34:53.397Z,27.20
2023-09-17T13:37:20.409Z,27.10
2023-09-17T13:39:53.280Z,27.30
2023-09-17T13:42:20.868Z,27.50
2023-09-17T13:44:47.689Z,27.50
2023-09-17T13:47:14.482Z,27.40
2023-09-17T13:49:44.341Z,27.40
2023-09-17T13:52:11.432Z,27.30
2023-09-17T13:54:39.901Z,27.20
2023-09-17T13:57:06.982Z,27.20
2023-09-17T13:59:33.698Z,27.20
2023-09-17T14:02:00.603Z,27.20
2023-09-17T14:04:27.433Z,27.30
2023-09-17T14:06:56.146Z,27.30
2023-09-17T14:09:23.460Z,27.40
2023-09-17T14:11:50.318Z,27.50
2023-09-17T14:14:17.076Z,27.40
2023-09-17T14:16:45.353Z,27.40
2023-09-17T14:19:18.546Z,27.10
2023-09-17T14:21:46.339Z,26.80
2023-09-17T14:24:13.327Z,26.80
2023-09-17T14:26:42.922Z,26.80
2023-09-17T14:29:40.112Z,26.70
2023-09-17T14:32:06.921Z,26.70
2023-09-17T14:34:49.489Z,26.50
2023-09-17T14:37:16.369Z,26.50
2023-09-17T14:39:43.075Z,26.60
2023-09-17T14:42:10.240Z,26.90
2023-09-17T14:44:37.506Z,26.80
2023-09-17T14:47:05.639Z,26.70
2023-09-17T14:49:32.370Z,26.60
2023-09-17T14:51:59.054Z,26.50
2023-09-17T14:54:26.456Z,26.50
2023-09-17T14:56:53.240Z,26.40
2023-09-17T14:59:20.794Z,26.30
2023-09-17T15:01:59.811Z,26.10
2023-09-17T15:04:30.883Z,26.10
2023-09-17T15:06:58.086Z,26.00
2023-09-17T15:09:26.697Z,25.90
2023-09-17T15:12:00.138Z,25.90
2023-09-17T15:14:26.876Z,25.80
2023-09-17T15:16:53.956Z,25.80
2023-09-17T15:19:33.228Z,25.80
2023-09-17T15:21:59.923Z,25.70
2023-09-17T15:24:27.246Z,25.60
2023-09-17T15:26:53.938Z,25.60
2023-09-17T15:29:20.745Z,25.60
2023-09-17T15:31:49.139Z,25.60
2023-09-17T15:34:16.332Z,25.60
2023-09-17T15:36:43.472Z,25.60
2023-09-17T15:39:10.492Z,25.60
2023-09-17T15:41:37.211Z,25.50
2023-09-17T15:44:04.059Z,25.40
2023-09-17T15:46:31.099Z,25.40
2023-09-17T15:48:57.884Z,25.40
2023-09-17T15:51:24.927Z,25.40
2023-09-17T15:53:52.080Z,25.40
2023-09-17T15:56:18.779Z,25.40
2023-09-17T15:58:45.476Z,25.30
2023-09-17T16:01:12.210Z,25.30
2023-09-17T16:03:41.929Z,25.30
2023-09-17T16:06:08.747Z,25.20
2023-09-17T16:08:35.454Z,25.20
2023-09-17T16:11:02.146Z,25.10
2023-09-17T16:13:29.527Z,25.10
2023-09-17T16:15:56.463Z,25.20
2023-09-17T16:18:23.396Z,25.20
2023-09-17T16:20:50.216Z,25.20
2023-09-17T16:23:17.288Z,25.10
2023-09-17T16:25:44.136Z,25.10
2023-09-17T16:28:11.018Z,25.00
2023-09-17T16:30:37.766Z,24.90
2023-09-17T16:33:04.668Z,24.90
2023-09-17T16:35:31.424Z,24.70
2023-09-17T16:37:58.311Z,24.60
2023-09-17T16:40:25.246Z,24.60
2023-09-17T16:43:06.332Z,24.50
2023-09-17T16:45:35.561Z,24.50
2023-09-17T16:48:02.920Z,24.50
2023-09-17T16:50:31.504Z,24.40
2023-09-17T16:52:58.545Z,24.40
2023-09-17T16:55:25.335Z,24.40
2023-09-17T16:57:52.305Z,24.30
2023-09-17T17:00:19.069Z,24.20
2023-09-17T17:02:45.876Z,24.20
2023-09-17T17:05:12.772Z,24.10
2023-09-17T17:07:40.931Z,23.90
2023-09-17T17:10:07.982Z,23.70
2023-09-17T17:12:35.306Z,23.70
2023-09-17T17:15:02.068Z,23.60
2023-09-17T17:17:29.734Z,23.60
2023-09-17T17:19:56.594Z,23.50
2023-09-17T17:22:23.415Z,23.50
2023-09-17T17:24:50.131Z,23.30
2023-09-17T17:27:16.806Z,23.20
2023-09-17T17:29:44.135Z,23.10
2023-09-17T17:32:10.905Z,23.00
2023-09-17T17:34:37.705Z,22.90
2023-09-17T17:37:05.075Z,22.70
2023-09-17T17:39:31.920Z,22.60
2023-09-17T17:41:58.695Z,22.40
2023-09-17T17:44:25.687Z,22.20
2023-09-17T17:46:52.532Z,22.10
2023-09-17T17:49:19.320Z,22.00
2023-09-17T17:51:46.202Z,21.90
2023-09-17T17:54:12.990Z,21.90
2023-09-17T17:56:39.711Z,21.80
2023-09-17T17:59:06.953Z,21.60
2023-09-17T18:01:33.877Z,21.50
2023-09-17T18:04:00.820Z,21.30
2023-09-17T18:06:27.510Z,21.20
2023-09-17T18:08:54.174Z,21.00
2023-09-17T18:11:21.514Z,20.90
2023-09-17T18:13:49.240Z,20.80
2023-09-17T18:16:16.295Z,20.80
2023-09-17T18:18:43.018Z,20.80
2023-09-17T18:21:10.613Z,20.80
2023-09-17T18:23:38.486Z,20.80
2023-09-17T18:26:05.277Z,20.80
2023-09-17T18:28:32.281Z,20.70
2023-09-17T18:30:59.263Z,20.60
2023-09-17T18:33:26.121Z,20.40
2023-09-17T18:35:54.962Z,20.00
2023-09-17T18:38:21.713Z,19.90
2023-09-17T18:40:52.124Z,19.80
2023-09-17T18:43:19.037Z,19.70
2023-09-17T18:45:46.651Z,19.70
2023-09-17T18:48:14.677Z,19.70
2023-09-17T18:50:41.777Z,19.70
2023-09-17T18:53:08.492Z,19.70
2023-09-17T18:55:35.257Z,19.70
2023-09-17T18:58:02.081Z,19.70
2023-09-17T19:00:28.830Z,19.60
2023-09-17T19:02:55.758Z,19.70
2023-09-17T19:05:22.760Z,19.60
2023-09-17T19:07:49.795Z,19.60
2023-09-17T19:10:16.615Z,19.70
2023-09-17T19:12:43.939Z,19.70
2023-09-17T19:15:11.453Z,19.70
2023-09-17T19:17:38.264Z,19.80
2023-09-17T19:20:06.990Z,19.70
2023-09-17T19:22:33.784Z,19.70
2023-09-17T19:25:00.508Z,19.60
2023-09-17T19:27:27.258Z,19.60
2023-09-17T19:29:53.998Z,19.60
2023-09-17T19:32:21.111Z,19.50
2023-09-17T19:34:48.082Z,19.50
2023-09-17T19:37:15.378Z,19.30
2023-09-17T19:39:42.212Z,19.30
2023-09-17T19:42:09.335Z,19.40
2023-09-17T19:44:39.563Z,19.40
2023-09-17T19:47:06.789Z,19.10
2023-09-17T19:49:33.554Z,19.20
2023-09-17T19:52:00.235Z,19.10
2023-09-17T19:54:26.997Z,19.10
2023-09-17T19:56:53.758Z,19.00
2023-09-17T19:59:20.500Z,18.90
2023-09-17T20:01:49.274Z,18.80
2023-09-17T20:04:16.189Z,18.80
2023-09-17T20:06:52.562Z,18.70
2023-09-17T20:09:22.057Z,18.80
2023-09-17T20:11:49.086Z,18.70
2023-09-17T20:14:15.958Z,18.60
2023-09-17T20:16:42.778Z,18.50
2023-09-17T20:19:09.580Z,18.50
2023-09-17T20:21:36.300Z,18.40
2023-09-17T20:24:03.398Z,18.40
2023-09-17T20:26:30.336Z,18.40
2023-09-17T20:28:57.134Z,18.30
2023-09-17T20:31:23.967Z,18.30
2023-09-17T20:33:50.684Z,18.30
2023-09-17T20:36:17.522Z,18.20
2023-09-17T20:38:49.472Z,18.20
2023-09-17T20:41:16.718Z,18.20
2023-09-17T20:43:43.768Z,18.20
2023-09-17T20:46:10.760Z,18.10
2023-09-17T20:48:37.594Z,18.00
2023-09-17T20:51:05.463Z,18.10
2023-09-17T20:53:33.277Z,18.00
2023-09-17T20:56:02.179Z,18.00
2023-09-17T20:58:29.051Z,18.00
2023-09-17T21:00:55.920Z,17.90
2023-09-17T21:03:22.901Z,18.00
2023-09-17T21:05:50.133Z,17.90
2023-09-17T21:08:17.071Z,17.80
2023-09-17T21:10:44.060Z,17.80
2023-09-17T21:13:12.065Z,17.80
2023-09-17T21:15:39.734Z,17.80
2023-09-17T21:18:07.327Z,17.70
2023-09-17T21:20:34.260Z,17.60
2023-09-17T21:23:02.381Z,17.70
2023-09-17T21:25:29.534Z,17.70
2023-09-17T21:27:56.398Z,17.70
2023-09-17T21:30:23.992Z,17.70
2023-09-17T21:32:50.808Z,17.70
2023-09-17T21:35:17.841Z,17.70
2023-09-17T21:37:44.770Z,17.70
2023-09-17T21:40:12.356Z,17.70
2023-09-17T21:42:39.137Z,17.60
2023-09-17T21:45:06.553Z,17.70
2023-09-17T21:47:33.414Z,17.50
2023-09-17T21:50:01.127Z,17.50
2023-09-17T21:52:30.495Z,17.50
2023-09-17T21:54:59.212Z,17.50
2023-09-17T21:57:26.169Z,17.50
2023-09-17T21:59:53.576Z,17.60
2023-09-17T22:02:20.764Z,17.50
2023-09-17T22:04:47.727Z,17.50
2023-09-17T22:07:14.554Z,17.30
2023-09-17T22:09:41.331Z,17.40
2023-09-17T22:12:08.520Z,17.50
2023-09-17T22:14:36.165Z,17.40
2023-09-17T22:17:03.677Z,17.30
2023-09-17T22:19:31.227Z,17.40
2023-09-17T22:21:58.134Z,17.40
2023-09-17T22:24:25.685Z,17.30
2023-09-17T22:26:52.564Z,17.40
2023-09-17T22:29:19.462Z,17.40
2023-09-17T22:31:47.272Z,17.50
2023-09-17T22:34:14.019Z,17.50
2023-09-17T22:36:40.815Z,17.60
2023-09-17T22:39:07.692Z,17.60
2023-09-17T22:41:34.498Z,17.60
2023-09-17T22:44:16.231Z,17.50
2023-09-17T22:46:47.900Z,17.40
2023-09-17T22:49:16.693Z,17.50
2023-09-17T22:51:43.368Z,17.50
2023-09-17T22:54:10.198Z,17.50
2023-09-17T22:56:37.057Z,17.60
2023-09-17T22:59:04.068Z,17.60
2023-09-17T23:01:31.376Z,17.60
2023-09-17T23:03:58.192Z,17.60
2023-09-17T23:06:25.597Z,17.50
2023-09-17T23:08:54.148Z,17.50
2023-09-17T23:11:21.369Z,17.60
2023-09-17T23:13:48.255Z,17.60
2023-09-17T23:16:16.363Z,17.70
2023-09-17T23:18:43.472Z,17.80
2023-09-17T23:21:11.149Z,17.80
2023-09-17T23:23:38.021Z,17.80
2023-09-17T23:26:05.217Z,17.70
2023-09-17T23:28:37.889Z,17.60
2023-09-17T23:31:04.879Z,17.50
2023-09-17T23:33:35.700Z,17.50
2023-09-17T23:36:03.537Z,17.50
2023-09-17T23:38:31.136Z,17.40
2023-09-17T23:40:58.090Z,17.40
2023-09-17T23:43:25.626Z,17.30
2023-09-17T23:45:52.838Z,17.10
2023-09-17T23:48:19.734Z,17.00
2023-09-17T23:50:46.431Z,17.10
2023-09-17T23:53:13.170Z,17.10
2023-09-17T23:55:39.885Z,17.40
2023-09-17T23:58:06.656Z,17.50
